Nearby METAR Reports

 

KSJC - San Jose, California, USA
Distance from station: NE 9mi, 14km
Updated: Sun, 21-Apr-2019 2:53am PDT
Clear
Clear
 Wind from S
Wind: S 3 mph , 6 km/h
Temperature: 50°F , 10°C
Dew Point: 46°F , 8°C
Humidity: 88%
Barometer: 30.06 inHg , 1017.9 hPa
Clouds: Clear
Visibility: 10 miles , 16 km
2019/04/21 09:53 KSJC 210953Z AUTO 19003KT 10SM CLR 10/08 A3006 RMK AO2 SLP178 T01000078 $
KNUQ - Moffett Nas/Mtn, California, USA
Distance from station: N 9mi, 14km
Updated: Sun, 21-Apr-2019 2:56am PDT
Clear
Clear
 Wind from SW
Wind: SW 3 mph , 6 km/h
Temperature: 52°F , 11°C
Dew Point: 45°F , 7°C
Humidity: 77%
Barometer: 30.07 inHg , 1018.3 hPa
Clouds: Clear
Visibility: 10 miles , 16 km
2019/04/21 09:56 KNUQ 210956Z 23003KT 10SM CLR 11/07 A3007 RMK AO2 SLP183 T01060072 $
KPAO - Palo Alto, California, USA
Distance from station: NNW 14mi, 23km
Updated: Sat, 20-Apr-2019 8:47pm PDT
NOT Current
Mostly cloudy
Mostly cloudy
 Wind from WNW
Wind: WNW 6 mph , 9 km/h
Temperature: 54°F , 12°C
Dew Point: 45°F , 7°C
Humidity: 72%
Barometer: 30.03 inHg , 1016.9 hPa
Clouds: Mostly cloudy
Visibility: 10 miles , 16 km
Cloud details: Mostly cloudy 2500 ft
2019/04/21 03:47 KPAO 210347Z 30005KT 10SM BKN025 12/07 A3003 RMK LAST
 
KRHV - San Jose/Reid, California, USA
Distance from station: ENE 12mi, 19km
Updated: Sat, 20-Apr-2019 9:55pm PDT
NOT Current
Mostly cloudy
Mostly cloudy
 Wind from W
Wind: W 8 mph , 13 km/h
Temperature: 54°F , 12°C
Dew Point: 43°F , 6°C
Humidity: 67%
Barometer: 30.05 inHg , 1017.6 hPa
Clouds: Mostly cloudy
Visibility: 7 miles , 11 km
Cloud details: Mostly cloudy 2800 ft
2019/04/21 04:55 KRHV 210455Z 28007KT 7SM BKN028 12/06 A3005 RMK LAST
KOAK - Oakland, California, USA
Distance from station: NNW 31mi, 50km
Updated: Sun, 21-Apr-2019 3:24am PDT
Mostly cloudy
Mostly cloudy
 Wind from SSE
Wind: SSE 7 mph , 11 km/h
Temperature: 54°F , 12°C
Dew Point: 46°F , 8°C
Humidity: 77%
Barometer: 30.07 inHg , 1018.3 hPa
Clouds: Mostly cloudy
Visibility: 9 miles , 14 km
Cloud details: Mostly cloudy 1200 ft
2019/04/21 10:24 KOAK 211024Z 15006KT 9SM BKN012 12/08 A3007 RMK AO2 T01220083
KSQL - San Carlos Airpo, California, USA
Distance from station: NW 21mi, 34km
Updated: Sun, 21-Apr-2019 3:40am PDT
Clear
Clear
 Wind from calm
Wind: Calm
Temperature: 48°F , 9°C
Dew Point: 45°F , 7°C
Humidity: 87%
Barometer: 30.07 inHg , 1018.3 hPa
Clouds: Clear
Visibility: 8 miles , 13 km
2019/04/21 10:40 KSQL 211040Z AUTO 00000KT 8SM CLR 09/07 A3007 RMK AO2
 
KSFO - San Francisco, California, USA
Distance from station: NW 30mi, 49km
Updated: Sun, 21-Apr-2019 2:56am PDT
Clear
Clear
 Wind from W
Wind: W 9 mph , 15 km/h
Temperature: 50°F , 10°C
Wind Chill: 46°F , 8°C
Dew Point: 45°F , 7°C
Humidity: 82%
Barometer: 30.05 inHg , 1017.6 hPa
Clouds: Clear
Visibility: 8 miles , 13 km
2019/04/21 09:56 KSFO 210956Z 27008KT 8SM CLR 10/07 A3005 RMK AO2 SLP175 T01000072
KE16 - San Martin, California, USA
Distance from station: ESE 27mi, 43km
Updated: Sun, 21-Apr-2019 3:35am PDT
Overcast
Overcast
 Wind from SE
Wind: SE 3 mph , 6 km/h
Temperature: 52°F , 11°C
Dew Point: 45°F , 7°C
Humidity: 77%
Barometer: 30.09 inHg , 1019 hPa
Clouds: Overcast
Visibility: 10 miles , 16 km
Cloud details: Overcast 2300 ft
2019/04/21 10:35 KE16 211035Z AUTO 13003KT 10SM OVC023 11/07 A3009 RMK AO2
KWVI - Watsonville, California, USA
Distance from station: SSE 27mi, 44km
Updated: Sun, 21-Apr-2019 3:32am PDT
Partly cloudy
Partly cloudy
 Wind from N
Wind: N 3 mph , 6 km/h
Temperature: 48°F , 9°C
Dew Point: 45°F , 7°C
Humidity: 87%
Barometer: 30.08 inHg , 1018.6 hPa
Clouds: Partly cloudy
Visibility: 10 miles , 16 km
Cloud details: Partly cloudy 2400 ft
2019/04/21 10:32 KWVI 211032Z AUTO 36003KT 10SM SCT024 09/07 A3008 RMK AO2 T00890072
 
KHAF - Half Moon Bay, California, USA
Distance from station: WNW 31mi, 50km
Updated: Sun, 21-Apr-2019 3:40am PDT
Mist, Overcast
Mist, Overcast
 Wind from N
Wind: N 6 mph , 9 km/h
Temperature: 50°F , 10°C
Wind Chill: 48°F , 9°C
Dew Point: 46°F , 8°C
Humidity: 88%
Barometer: 30.08 inHg , 1018.6 hPa
Summary: Mist
Clouds: Overcast
Visibility: 4 miles , 6 km
Cloud details: Overcast 1200 ft
2019/04/21 10:40 KHAF 211040Z AUTO 35005KT 4SM BR OVC012 10/08 A3008 RMK AO2
KHWD - Hayward, California, USA
Distance from station: N 28mi, 44km
Updated: Sun, 21-Apr-2019 3:05am PDT
Few Clouds
Few Clouds
 Wind from SSW
Wind: SSW 5 mph , 7 km/h
Temperature: 52°F , 11°C
Dew Point: 45°F , 7°C
Humidity: 77%
Barometer: 30.06 inHg , 1017.9 hPa
Clouds: Few Clouds
Visibility: 10 miles , 16 km
Cloud details: Few Clouds 1500 ft
2019/04/21 10:05 KHWD 211005Z 21004KT 10SM FEW015 11/07 A3006 RMK AO2 T01060072
KLVK - Livermore, California, USA
Distance from station: NNE 31mi, 51km
Updated: Sun, 21-Apr-2019 2:53am PDT
Mist, Clear
Mist, Clear
 Wind from NNW
Wind: NNW 3 mph , 6 km/h
Temperature: 48°F , 9°C
Dew Point: 45°F , 7°C
Humidity: 87%
Barometer: 30.04 inHg , 1017.3 hPa
Summary: Mist
Clouds: Clear
Visibility: 6 miles , 10 km
2019/04/21 09:53 KLVK 210953Z AUTO 33003KT 6SM BR CLR 09/07 A3004 RMK AO2 SLP173 T00890067